sensor_id;sensor_type;location;lat;lon;timestamp;P1;durP1;ratioP1;P2;durP2;ratioP2
12814;SDS011;6472;52.328;13.070;2022-07-29T00:01:07;2.97;;;1.53;;
12814;SDS011;6472;52.328;13.070;2022-07-29T00:03:44;4.03;;;1.70;;
12814;SDS011;6472;52.328;13.070;2022-07-29T00:06:13;4.27;;;1.80;;
12814;SDS011;6472;52.328;13.070;2022-07-29T00:08:41;3.17;;;1.50;;
12814;SDS011;6472;52.328;13.070;2022-07-29T00:11:09;2.27;;;1.90;;
12814;SDS011;6472;52.328;13.070;2022-07-29T00:13:37;2.67;;;1.53;;
12814;SDS011;6472;52.328;13.070;2022-07-29T00:16:05;1.57;;;1.47;;
12814;SDS011;6472;52.328;13.070;2022-07-29T00:18:34;3.53;;;1.73;;
12814;SDS011;6472;52.328;13.070;2022-07-29T00:21:02;3.97;;;1.67;;
12814;SDS011;6472;52.328;13.070;2022-07-29T00:23:30;4.07;;;1.70;;
12814;SDS011;6472;52.328;13.070;2022-07-29T00:26:02;3.30;;;2.03;;
12814;SDS011;6472;52.328;13.070;2022-07-29T00:28:30;3.90;;;1.80;;
12814;SDS011;6472;52.328;13.070;2022-07-29T00:30:58;5.63;;;1.80;;
12814;SDS011;6472;52.328;13.070;2022-07-29T00:33:27;2.77;;;1.83;;
12814;SDS011;6472;52.328;13.070;2022-07-29T00:35:57;2.33;;;1.70;;
12814;SDS011;6472;52.328;13.070;2022-07-29T00:38:24;3.10;;;1.63;;
12814;SDS011;6472;52.328;13.070;2022-07-29T00:40:52;2.17;;;2.00;;
12814;SDS011;6472;52.328;13.070;2022-07-29T00:43:20;2.10;;;1.70;;
12814;SDS011;6472;52.328;13.070;2022-07-29T00:45:48;2.70;;;1.93;;
12814;SDS011;6472;52.328;13.070;2022-07-29T00:48:16;2.07;;;1.90;;
12814;SDS011;6472;52.328;13.070;2022-07-29T00:50:44;3.27;;;2.33;;
12814;SDS011;6472;52.328;13.070;2022-07-29T00:53:14;3.27;;;2.20;;
12814;SDS011;6472;52.328;13.070;2022-07-29T00:55:42;2.23;;;1.83;;
12814;SDS011;6472;52.328;13.070;2022-07-29T00:58:11;3.97;;;1.83;;
12814;SDS011;6472;52.328;13.070;2022-07-29T01:00:41;4.27;;;2.23;;
12814;SDS011;6472;52.328;13.070;2022-07-29T01:03:11;3.00;;;1.80;;
12814;SDS011;6472;52.328;13.070;2022-07-29T01:05:39;4.20;;;2.03;;
12814;SDS011;6472;52.328;13.070;2022-07-29T01:08:18;4.77;;;2.13;;
12814;SDS011;6472;52.328;13.070;2022-07-29T01:10:47;3.43;;;2.17;;
12814;SDS011;6472;52.328;13.070;2022-07-29T01:13:16;4.33;;;2.70;;
12814;SDS011;6472;52.328;13.070;2022-07-29T01:15:46;6.13;;;2.87;;
12814;SDS011;6472;52.328;13.070;2022-07-29T01:18:20;2.97;;;2.23;;
12814;SDS011;6472;52.328;13.070;2022-07-29T01:21:11;3.10;;;2.40;;
12814;SDS011;6472;52.328;13.070;2022-07-29T01:24:14;3.87;;;2.40;;
12814;SDS011;6472;52.328;13.070;2022-07-29T01:27:13;3.53;;;1.93;;
12814;SDS011;6472;52.328;13.070;2022-07-29T01:30:10;3.67;;;2.60;;
12814;SDS011;6472;52.328;13.070;2022-07-29T01:32:40;5.13;;;2.67;;
12814;SDS011;6472;52.328;13.070;2022-07-29T01:35:17;5.67;;;2.80;;
12814;SDS011;6472;52.328;13.070;2022-07-29T01:37:52;7.07;;;2.43;;
12814;SDS011;6472;52.328;13.070;2022-07-29T01:40:29;5.60;;;2.90;;
12814;SDS011;6472;52.328;13.070;2022-07-29T01:43:03;10.67;;;2.80;;
12814;SDS011;6472;52.328;13.070;2022-07-29T01:45:50;4.40;;;2.07;;
12814;SDS011;6472;52.328;13.070;2022-07-29T01:48:30;6.53;;;2.63;;
12814;SDS011;6472;52.328;13.070;2022-07-29T01:51:05;2.50;;;2.30;;
12814;SDS011;6472;52.328;13.070;2022-07-29T01:53:42;7.83;;;2.73;;
12814;SDS011;6472;52.328;13.070;2022-07-29T01:56:13;5.93;;;2.43;;
12814;SDS011;6472;52.328;13.070;2022-07-29T01:58:48;7.17;;;2.80;;
12814;SDS011;6472;52.328;13.070;2022-07-29T02:01:27;4.30;;;2.60;;
12814;SDS011;6472;52.328;13.070;2022-07-29T02:04:03;5.50;;;2.90;;
12814;SDS011;6472;52.328;13.070;2022-07-29T02:06:56;5.83;;;2.23;;
12814;SDS011;6472;52.328;13.070;2022-07-29T02:09:32;3.47;;;2.30;;
12814;SDS011;6472;52.328;13.070;2022-07-29T02:12:05;2.70;;;2.50;;
12814;SDS011;6472;52.328;13.070;2022-07-29T02:14:38;4.53;;;2.67;;
12814;SDS011;6472;52.328;13.070;2022-07-29T02:17:16;3.33;;;2.43;;
12814;SDS011;6472;52.328;13.070;2022-07-29T02:19:51;4.57;;;2.30;;
12814;SDS011;6472;52.328;13.070;2022-07-29T02:22:31;2.57;;;2.30;;
12814;SDS011;6472;52.328;13.070;2022-07-29T02:25:08;5.23;;;2.43;;
12814;SDS011;6472;52.328;13.070;2022-07-29T02:27:40;5.67;;;2.87;;
12814;SDS011;6472;52.328;13.070;2022-07-29T02:30:12;3.53;;;2.80;;
12814;SDS011;6472;52.328;13.070;2022-07-29T02:32:45;4.70;;;2.70;;
12814;SDS011;6472;52.328;13.070;2022-07-29T02:35:22;2.43;;;2.23;;
12814;SDS011;6472;52.328;13.070;2022-07-29T02:38:00;3.23;;;2.43;;
12814;SDS011;6472;52.328;13.070;2022-07-29T02:40:48;6.03;;;2.50;;
12814;SDS011;6472;52.328;13.070;2022-07-29T02:43:20;2.53;;;2.27;;
12814;SDS011;6472;52.328;13.070;2022-07-29T02:45:55;4.50;;;2.37;;
12814;SDS011;6472;52.328;13.070;2022-07-29T02:48:31;3.30;;;2.40;;
12814;SDS011;6472;52.328;13.070;2022-07-29T02:51:11;3.70;;;2.30;;
12814;SDS011;6472;52.328;13.070;2022-07-29T02:54:08;3.17;;;2.60;;
12814;SDS011;6472;52.328;13.070;2022-07-29T02:56:54;2.50;;;2.10;;
12814;SDS011;6472;52.328;13.070;2022-07-29T02:59:26;5.47;;;2.60;;
12814;SDS011;6472;52.328;13.070;2022-07-29T03:01:59;2.90;;;2.57;;
12814;SDS011;6472;52.328;13.070;2022-07-29T03:04:32;5.07;;;2.40;;
12814;SDS011;6472;52.328;13.070;2022-07-29T03:07:04;5.17;;;2.30;;
12814;SDS011;6472;52.328;13.070;2022-07-29T03:09:37;10.50;;;2.90;;
12814;SDS011;6472;52.328;13.070;2022-07-29T03:12:08;7.20;;;2.87;;
12814;SDS011;6472;52.328;13.070;2022-07-29T03:14:40;5.77;;;2.63;;
12814;SDS011;6472;52.328;13.070;2022-07-29T03:17:09;4.60;;;2.60;;
12814;SDS011;6472;52.328;13.070;2022-07-29T03:19:43;7.00;;;3.27;;
12814;SDS011;6472;52.328;13.070;2022-07-29T03:22:12;4.20;;;2.43;;
12814;SDS011;6472;52.328;13.070;2022-07-29T03:24:44;6.40;;;2.40;;
12814;SDS011;6472;52.328;13.070;2022-07-29T03:27:12;7.90;;;2.83;;
12814;SDS011;6472;52.328;13.070;2022-07-29T03:29:40;5.63;;;2.77;;
12814;SDS011;6472;52.328;13.070;2022-07-29T03:32:15;3.07;;;2.37;;
12814;SDS011;6472;52.328;13.070;2022-07-29T03:34:52;4.37;;;2.70;;
12814;SDS011;6472;52.328;13.070;2022-07-29T03:37:19;4.53;;;2.53;;
12814;SDS011;6472;52.328;13.070;2022-07-29T03:39:48;5.93;;;2.40;;
12814;SDS011;6472;52.328;13.070;2022-07-29T03:42:19;6.10;;;2.53;;
12814;SDS011;6472;52.328;13.070;2022-07-29T03:44:48;3.83;;;2.67;;
12814;SDS011;6472;52.328;13.070;2022-07-29T03:47:19;4.47;;;2.60;;
12814;SDS011;6472;52.328;13.070;2022-07-29T03:50:13;2.67;;;2.37;;
12814;SDS011;6472;52.328;13.070;2022-07-29T03:52:43;3.13;;;2.57;;
12814;SDS011;6472;52.328;13.070;2022-07-29T03:55:11;3.57;;;2.40;;
12814;SDS011;6472;52.328;13.070;2022-07-29T03:57:39;3.47;;;2.47;;
12814;SDS011;6472;52.328;13.070;2022-07-29T04:00:09;9.33;;;3.23;;
12814;SDS011;6472;52.328;13.070;2022-07-29T04:02:37;5.47;;;2.67;;
12814;SDS011;6472;52.328;13.070;2022-07-29T04:05:11;4.87;;;2.70;;
12814;SDS011;6472;52.328;13.070;2022-07-29T04:07:42;6.63;;;2.50;;
12814;SDS011;6472;52.328;13.070;2022-07-29T04:10:11;5.00;;;2.40;;
12814;SDS011;6472;52.328;13.070;2022-07-29T04:12:39;4.47;;;2.37;;
12814;SDS011;6472;52.328;13.070;2022-07-29T04:15:07;5.17;;;2.37;;
12814;SDS011;6472;52.328;13.070;2022-07-29T04:17:36;6.37;;;2.73;;
12814;SDS011;6472;52.328;13.070;2022-07-29T04:20:04;5.33;;;2.67;;
12814;SDS011;6472;52.328;13.070;2022-07-29T04:22:33;3.77;;;2.70;;
12814;SDS011;6472;52.328;13.070;2022-07-29T04:25:03;3.67;;;2.77;;
12814;SDS011;6472;52.328;13.070;2022-07-29T04:27:31;3.87;;;2.53;;
12814;SDS011;6472;52.328;13.070;2022-07-29T04:29:59;3.77;;;2.77;;
12814;SDS011;6472;52.328;13.070;2022-07-29T04:32:27;3.50;;;2.73;;
12814;SDS011;6472;52.328;13.070;2022-07-29T04:34:56;3.47;;;2.33;;
12814;SDS011;6472;52.328;13.070;2022-07-29T04:37:24;4.10;;;2.40;;
12814;SDS011;6472;52.328;13.070;2022-07-29T04:39:52;5.40;;;2.40;;
12814;SDS011;6472;52.328;13.070;2022-07-29T04:42:21;3.73;;;2.63;;
12814;SDS011;6472;52.328;13.070;2022-07-29T04:44:52;3.03;;;2.13;;
12814;SDS011;6472;52.328;13.070;2022-07-29T04:47:21;3.23;;;2.73;;
12814;SDS011;6472;52.328;13.070;2022-07-29T04:49:49;7.03;;;2.67;;
12814;SDS011;6472;52.328;13.070;2022-07-29T04:52:17;3.70;;;2.67;;
12814;SDS011;6472;52.328;13.070;2022-07-29T04:54:45;4.03;;;2.30;;
12814;SDS011;6472;52.328;13.070;2022-07-29T04:57:14;2.43;;;1.93;;
12814;SDS011;6472;52.328;13.070;2022-07-29T04:59:43;2.60;;;2.40;;
12814;SDS011;6472;52.328;13.070;2022-07-29T05:02:12;2.20;;;2.00;;
12814;SDS011;6472;52.328;13.070;2022-07-29T05:04:40;8.17;;;2.63;;
12814;SDS011;6472;52.328;13.070;2022-07-29T05:07:08;5.23;;;2.20;;
12814;SDS011;6472;52.328;13.070;2022-07-29T05:09:36;6.63;;;2.83;;
12814;SDS011;6472;52.328;13.070;2022-07-29T05:12:04;4.60;;;2.37;;
12814;SDS011;6472;52.328;13.070;2022-07-29T05:14:40;2.60;;;2.10;;
12814;SDS011;6472;52.328;13.070;2022-07-29T05:17:09;4.23;;;2.67;;
12814;SDS011;6472;52.328;13.070;2022-07-29T05:19:37;4.80;;;2.83;;
12814;SDS011;6472;52.328;13.070;2022-07-29T05:22:05;3.83;;;2.53;;
12814;SDS011;6472;52.328;13.070;2022-07-29T05:24:33;5.72;;;2.90;;
12814;SDS011;6472;52.328;13.070;2022-07-29T05:27:01;2.33;;;2.07;;
12814;SDS011;6472;52.328;13.070;2022-07-29T05:29:29;3.37;;;2.20;;
12814;SDS011;6472;52.328;13.070;2022-07-29T05:32:11;5.27;;;2.80;;
12814;SDS011;6472;52.328;13.070;2022-07-29T05:34:40;5.60;;;2.10;;
12814;SDS011;6472;52.328;13.070;2022-07-29T05:37:17;3.53;;;3.00;;
12814;SDS011;6472;52.328;13.070;2022-07-29T05:39:45;4.47;;;2.80;;
12814;SDS011;6472;52.328;13.070;2022-07-29T05:42:22;3.80;;;2.40;;
12814;SDS011;6472;52.328;13.070;2022-07-29T05:44:50;2.30;;;2.10;;
12814;SDS011;6472;52.328;13.070;2022-07-29T05:47:20;4.25;;;2.63;;
12814;SDS011;6472;52.328;13.070;2022-07-29T05:49:48;4.95;;;2.40;;
12814;SDS011;6472;52.328;13.070;2022-07-29T05:52:16;3.17;;;2.30;;
12814;SDS011;6472;52.328;13.070;2022-07-29T05:54:44;6.15;;;2.63;;
12814;SDS011;6472;52.328;13.070;2022-07-29T05:57:15;3.85;;;2.40;;
12814;SDS011;6472;52.328;13.070;2022-07-29T05:59:44;2.60;;;2.08;;
12814;SDS011;6472;52.328;13.070;2022-07-29T06:02:12;3.75;;;2.40;;
12814;SDS011;6472;52.328;13.070;2022-07-29T06:04:42;2.57;;;2.20;;
12814;SDS011;6472;52.328;13.070;2022-07-29T06:07:10;4.40;;;2.30;;
12814;SDS011;6472;52.328;13.070;2022-07-29T06:09:38;4.20;;;2.45;;
12814;SDS011;6472;52.328;13.070;2022-07-29T06:12:06;4.50;;;2.72;;
12814;SDS011;6472;52.328;13.070;2022-07-29T06:14:35;4.20;;;2.20;;
12814;SDS011;6472;52.328;13.070;2022-07-29T06:17:04;4.30;;;2.15;;
12814;SDS011;6472;52.328;13.070;2022-07-29T06:19:33;2.97;;;2.38;;
12814;SDS011;6472;52.328;13.070;2022-07-29T06:22:03;4.97;;;2.38;;
12814;SDS011;6472;52.328;13.070;2022-07-29T06:24:31;5.70;;;2.63;;
12814;SDS011;6472;52.328;13.070;2022-07-29T06:26:59;6.53;;;2.35;;
12814;SDS011;6472;52.328;13.070;2022-07-29T06:29:27;4.03;;;2.22;;
12814;SDS011;6472;52.328;13.070;2022-07-29T06:31:55;5.05;;;2.50;;
12814;SDS011;6472;52.328;13.070;2022-07-29T06:34:23;3.45;;;2.17;;
12814;SDS011;6472;52.328;13.070;2022-07-29T06:36:52;3.45;;;2.10;;
12814;SDS011;6472;52.328;13.070;2022-07-29T06:39:22;3.33;;;2.30;;
12814;SDS011;6472;52.328;13.070;2022-07-29T06:41:50;5.68;;;2.35;;
12814;SDS011;6472;52.328;13.070;2022-07-29T06:44:18;3.30;;;1.92;;
12814;SDS011;6472;52.328;13.070;2022-07-29T06:46:46;2.25;;;2.15;;
12814;SDS011;6472;52.328;13.070;2022-07-29T06:49:16;4.75;;;2.58;;
12814;SDS011;6472;52.328;13.070;2022-07-29T06:51:44;8.85;;;2.47;;
12814;SDS011;6472;52.328;13.070;2022-07-29T06:54:12;2.13;;;1.92;;
12814;SDS011;6472;52.328;13.070;2022-07-29T06:56:42;4.30;;;2.45;;
12814;SDS011;6472;52.328;13.070;2022-07-29T06:59:10;4.75;;;2.10;;
12814;SDS011;6472;52.328;13.070;2022-07-29T07:01:39;4.90;;;2.33;;
12814;SDS011;6472;52.328;13.070;2022-07-29T07:04:09;3.47;;;2.17;;
12814;SDS011;6472;52.328;13.070;2022-07-29T07:06:38;4.43;;;2.20;;
12814;SDS011;6472;52.328;13.070;2022-07-29T07:09:07;4.78;;;2.38;;
12814;SDS011;6472;52.328;13.070;2022-07-29T07:11:35;3.72;;;2.03;;
12814;SDS011;6472;52.328;13.070;2022-07-29T07:14:05;2.10;;;1.90;;
12814;SDS011;6472;52.328;13.070;2022-07-29T07:16:33;3.60;;;2.17;;
12814;SDS011;6472;52.328;13.070;2022-07-29T07:19:01;6.65;;;2.67;;
12814;SDS011;6472;52.328;13.070;2022-07-29T07:21:29;3.05;;;2.03;;
12814;SDS011;6472;52.328;13.070;2022-07-29T07:23:57;3.55;;;2.20;;
12814;SDS011;6472;52.328;13.070;2022-07-29T07:26:25;2.17;;;1.95;;
12814;SDS011;6472;52.328;13.070;2022-07-29T07:28:54;2.10;;;1.70;;
12814;SDS011;6472;52.328;13.070;2022-07-29T07:31:23;3.70;;;2.17;;
12814;SDS011;6472;52.328;13.070;2022-07-29T07:33:51;3.85;;;1.90;;
12814;SDS011;6472;52.328;13.070;2022-07-29T07:36:20;3.83;;;2.20;;
12814;SDS011;6472;52.328;13.070;2022-07-29T07:38:49;1.83;;;1.70;;
12814;SDS011;6472;52.328;13.070;2022-07-29T07:41:17;3.53;;;1.98;;
12814;SDS011;6472;52.328;13.070;2022-07-29T07:43:45;3.70;;;2.40;;
12814;SDS011;6472;52.328;13.070;2022-07-29T07:46:13;4.10;;;1.75;;
12814;SDS011;6472;52.328;13.070;2022-07-29T07:48:43;1.80;;;1.70;;
12814;SDS011;6472;52.328;13.070;2022-07-29T07:51:12;2.28;;;1.70;;
12814;SDS011;6472;52.328;13.070;2022-07-29T07:53:40;2.88;;;1.80;;
12814;SDS011;6472;52.328;13.070;2022-07-29T07:56:08;4.82;;;1.70;;
12814;SDS011;6472;52.328;13.070;2022-07-29T07:58:38;2.13;;;1.70;;
12814;SDS011;6472;52.328;13.070;2022-07-29T08:01:06;2.80;;;1.88;;
12814;SDS011;6472;52.328;13.070;2022-07-29T08:03:35;5.68;;;2.03;;
12814;SDS011;6472;52.328;13.070;2022-07-29T08:06:05;3.20;;;1.88;;
12814;SDS011;6472;52.328;13.070;2022-07-29T08:08:33;3.15;;;1.58;;
12814;SDS011;6472;52.328;13.070;2022-07-29T08:11:01;2.72;;;1.63;;
12814;SDS011;6472;52.328;13.070;2022-07-29T08:13:34;3.53;;;1.70;;
12814;SDS011;6472;52.328;13.070;2022-07-29T08:16:04;2.95;;;2.00;;
12814;SDS011;6472;52.328;13.070;2022-07-29T08:18:39;1.92;;;1.52;;
12814;SDS011;6472;52.328;13.070;2022-07-29T08:21:09;1.88;;;1.52;;
12814;SDS011;6472;52.328;13.070;2022-07-29T08:23:40;1.98;;;1.60;;
12814;SDS011;6472;52.328;13.070;2022-07-29T08:26:25;3.05;;;1.63;;
12814;SDS011;6472;52.328;13.070;2022-07-29T08:28:53;3.25;;;1.40;;
12814;SDS011;6472;52.328;13.070;2022-07-29T08:31:21;3.83;;;1.60;;
12814;SDS011;6472;52.328;13.070;2022-07-29T08:33:49;5.13;;;1.90;;
12814;SDS011;6472;52.328;13.070;2022-07-29T08:36:19;2.58;;;1.45;;
12814;SDS011;6472;52.328;13.070;2022-07-29T08:38:48;1.63;;;1.50;;
12814;SDS011;6472;52.328;13.070;2022-07-29T08:41:17;5.18;;;1.80;;
12814;SDS011;6472;52.328;13.070;2022-07-29T08:43:46;1.33;;;1.23;;
12814;SDS011;6472;52.328;13.070;2022-07-29T08:46:15;1.60;;;1.48;;
12814;SDS011;6472;52.328;13.070;2022-07-29T08:48:44;3.22;;;1.40;;
12814;SDS011;6472;52.328;13.070;2022-07-29T08:51:13;2.80;;;1.45;;
12814;SDS011;6472;52.328;13.070;2022-07-29T08:53:45;2.30;;;1.60;;
12814;SDS011;6472;52.328;13.070;2022-07-29T08:56:16;2.22;;;1.60;;
12814;SDS011;6472;52.328;13.070;2022-07-29T08:58:45;2.65;;;1.65;;
12814;SDS011;6472;52.328;13.070;2022-07-29T09:01:20;1.75;;;1.55;;
12814;SDS011;6472;52.328;13.070;2022-07-29T09:04:11;1.90;;;1.60;;
12814;SDS011;6472;52.328;13.070;2022-07-29T09:06:42;5.18;;;2.00;;
12814;SDS011;6472;52.328;13.070;2022-07-29T09:09:13;1.60;;;1.45;;
12814;SDS011;6472;52.328;13.070;2022-07-29T09:11:42;8.32;;;2.35;;
12814;SDS011;6472;52.328;13.070;2022-07-29T09:14:12;2.00;;;1.77;;
12814;SDS011;6472;52.328;13.070;2022-07-29T09:16:44;2.92;;;1.85;;
12814;SDS011;6472;52.328;13.070;2022-07-29T09:19:24;3.83;;;1.40;;
12814;SDS011;6472;52.328;13.070;2022-07-29T09:21:54;2.47;;;1.30;;
12814;SDS011;6472;52.328;13.070;2022-07-29T09:24:40;4.10;;;1.63;;
12814;SDS011;6472;52.328;13.070;2022-07-29T09:27:10;9.15;;;1.70;;
12814;SDS011;6472;52.328;13.070;2022-07-29T09:29:58;2.38;;;1.30;;
12814;SDS011;6472;52.328;13.070;2022-07-29T09:32:27;2.55;;;1.58;;
12814;SDS011;6472;52.328;13.070;2022-07-29T09:35:14;2.92;;;1.85;;
12814;SDS011;6472;52.328;13.070;2022-07-29T09:37:47;1.52;;;1.42;;
12814;SDS011;6472;52.328;13.070;2022-07-29T09:40:17;1.67;;;1.27;;
12814;SDS011;6472;52.328;13.070;2022-07-29T09:42:46;1.77;;;1.15;;
12814;SDS011;6472;52.328;13.070;2022-07-29T09:45:26;1.27;;;1.17;;
12814;SDS011;6472;52.328;13.070;2022-07-29T09:47:56;2.40;;;1.33;;
12814;SDS011;6472;52.328;13.070;2022-07-29T09:50:36;1.63;;;1.38;;
12814;SDS011;6472;52.328;13.070;2022-07-29T09:53:06;2.95;;;1.70;;
12814;SDS011;6472;52.328;13.070;2022-07-29T09:55:47;4.57;;;1.15;;
12814;SDS011;6472;52.328;13.070;2022-07-29T09:58:17;1.50;;;1.20;;
12814;SDS011;6472;52.328;13.070;2022-07-29T10:00:46;1.50;;;1.00;;
12814;SDS011;6472;52.328;13.070;2022-07-29T10:03:16;3.50;;;1.30;;
12814;SDS011;6472;52.328;13.070;2022-07-29T10:05:45;3.28;;;1.70;;
12814;SDS011;6472;52.328;13.070;2022-07-29T10:08:24;2.05;;;1.20;;
12814;SDS011;6472;52.328;13.070;2022-07-29T10:11:02;2.10;;;1.52;;
12814;SDS011;6472;52.328;13.070;2022-07-29T10:13:36;1.25;;;1.15;;
12814;SDS011;6472;52.328;13.070;2022-07-29T10:16:05;3.70;;;1.20;;
12814;SDS011;6472;52.328;13.070;2022-07-29T10:18:34;2.22;;;1.40;;
12814;SDS011;6472;52.328;13.070;2022-07-29T10:21:04;1.63;;;1.33;;
12814;SDS011;6472;52.328;13.070;2022-07-29T10:23:33;5.82;;;1.40;;
12814;SDS011;6472;52.328;13.070;2022-07-29T10:26:13;2.35;;;1.10;;
12814;SDS011;6472;52.328;13.070;2022-07-29T10:28:43;5.18;;;1.63;;
12814;SDS011;6472;52.328;13.070;2022-07-29T10:31:12;3.22;;;1.23;;
12814;SDS011;6472;52.328;13.070;2022-07-29T10:34:00;1.42;;;1.33;;
12814;SDS011;6472;52.328;13.070;2022-07-29T10:36:40;1.52;;;1.27;;
12814;SDS011;6472;52.328;13.070;2022-07-29T10:39:19;2.00;;;1.13;;
12814;SDS011;6472;52.328;13.070;2022-07-29T10:42:13;1.10;;;1.10;;
12814;SDS011;6472;52.328;13.070;2022-07-29T10:44:58;1.30;;;1.20;;
12814;SDS011;6472;52.328;13.070;2022-07-29T10:47:26;1.52;;;1.42;;
12814;SDS011;6472;52.328;13.070;2022-07-29T10:49:55;6.25;;;1.70;;
12814;SDS011;6472;52.328;13.070;2022-07-29T10:55:33;2.40;;;1.55;;
12814;SDS011;6472;52.328;13.070;2022-07-29T10:58:17;5.03;;;1.58;;
12814;SDS011;6472;52.328;13.070;2022-07-29T11:00:46;4.40;;;1.67;;
12814;SDS011;6472;52.328;13.070;2022-07-29T11:09:34;2.03;;;1.55;;
12814;SDS011;6472;52.328;13.070;2022-07-29T11:12:04;2.67;;;2.20;;
12814;SDS011;6472;52.328;13.070;2022-07-29T11:14:57;2.78;;;2.05;;
12814;SDS011;6472;52.328;13.070;2022-07-29T11:17:27;3.47;;;2.05;;
12814;SDS011;6472;52.328;13.070;2022-07-29T11:20:32;2.92;;;1.92;;
12814;SDS011;6472;52.328;13.070;2022-07-29T11:23:18;2.15;;;1.95;;
12814;SDS011;6472;52.328;13.070;2022-07-29T11:26:18;1.85;;;1.75;;
12814;SDS011;6472;52.328;13.070;2022-07-29T11:28:50;2.30;;;1.80;;
12814;SDS011;6472;52.328;13.070;2022-07-29T11:31:33;2.75;;;2.10;;
12814;SDS011;6472;52.328;13.070;2022-07-29T11:34:17;2.70;;;1.98;;
12814;SDS011;6472;52.328;13.070;2022-07-29T11:40:14;2.55;;;2.30;;
12814;SDS011;6472;52.328;13.070;2022-07-29T11:42:46;2.85;;;2.28;;
12814;SDS011;6472;52.328;13.070;2022-07-29T11:45:19;2.50;;;2.30;;
12814;SDS011;6472;52.328;13.070;2022-07-29T11:48:18;4.63;;;1.98;;
12814;SDS011;6472;52.328;13.070;2022-07-29T11:50:55;2.58;;;2.20;;
12814;SDS011;6472;52.328;13.070;2022-07-29T11:53:24;2.28;;;1.95;;
12814;SDS011;6472;52.328;13.070;2022-07-29T11:55:58;3.03;;;2.03;;
12814;SDS011;6472;52.328;13.070;2022-07-29T11:58:28;4.45;;;2.03;;
12814;SDS011;6472;52.328;13.070;2022-07-29T12:00:57;2.70;;;1.88;;
12814;SDS011;6472;52.328;13.070;2022-07-29T12:03:31;2.95;;;2.42;;
12814;SDS011;6472;52.328;13.070;2022-07-29T12:06:02;2.75;;;2.15;;
12814;SDS011;6472;52.328;13.070;2022-07-29T12:08:39;3.45;;;2.17;;
12814;SDS011;6472;52.328;13.070;2022-07-29T12:11:15;4.40;;;2.20;;
12814;SDS011;6472;52.328;13.070;2022-07-29T12:13:46;3.47;;;2.40;;
12814;SDS011;6472;52.328;13.070;2022-07-29T12:16:14;4.18;;;1.95;;
12814;SDS011;6472;52.328;13.070;2022-07-29T12:18:56;2.58;;;2.17;;
12814;SDS011;6472;52.328;13.070;2022-07-29T12:21:25;3.05;;;2.30;;
12814;SDS011;6472;52.328;13.070;2022-07-29T12:23:55;2.45;;;2.03;;
12814;SDS011;6472;52.328;13.070;2022-07-29T12:26:30;4.45;;;2.17;;
12814;SDS011;6472;52.328;13.070;2022-07-29T12:29:01;2.33;;;1.83;;
12814;SDS011;6472;52.328;13.070;2022-07-29T12:31:40;5.35;;;2.40;;
12814;SDS011;6472;52.328;13.070;2022-07-29T12:34:15;2.88;;;2.67;;
12814;SDS011;6472;52.328;13.070;2022-07-29T12:36:43;3.85;;;2.50;;
12814;SDS011;6472;52.328;13.070;2022-07-29T12:39:11;5.18;;;2.33;;
12814;SDS011;6472;52.328;13.070;2022-07-29T12:41:40;4.15;;;2.15;;
12814;SDS011;6472;52.328;13.070;2022-07-29T12:44:08;4.22;;;2.17;;
12814;SDS011;6472;52.328;13.070;2022-07-29T12:46:36;2.17;;;2.00;;
12814;SDS011;6472;52.328;13.070;2022-07-29T12:49:04;2.28;;;2.08;;
12814;SDS011;6472;52.328;13.070;2022-07-29T12:51:35;2.03;;;1.80;;
12814;SDS011;6472;52.328;13.070;2022-07-29T12:54:05;2.33;;;2.08;;
12814;SDS011;6472;52.328;13.070;2022-07-29T12:56:36;2.40;;;2.10;;
12814;SDS011;6472;52.328;13.070;2022-07-29T12:59:14;3.65;;;2.20;;
12814;SDS011;6472;52.328;13.070;2022-07-29T13:01:44;3.03;;;2.70;;
12814;SDS011;6472;52.328;13.070;2022-07-29T13:04:23;2.55;;;2.22;;
12814;SDS011;6472;52.328;13.070;2022-07-29T13:06:59;2.38;;;2.20;;
12814;SDS011;6472;52.328;13.070;2022-07-29T13:09:36;2.63;;;2.20;;
12814;SDS011;6472;52.328;13.070;2022-07-29T13:12:06;3.42;;;2.38;;
12814;SDS011;6472;52.328;13.070;2022-07-29T13:14:37;5.07;;;2.35;;
12814;SDS011;6472;52.328;13.070;2022-07-29T13:17:07;2.45;;;2.25;;
12814;SDS011;6472;52.328;13.070;2022-07-29T13:19:38;1.90;;;1.73;;
12814;SDS011;6472;52.328;13.070;2022-07-29T13:22:09;4.85;;;2.35;;
12814;SDS011;6472;52.328;13.070;2022-07-29T13:24:45;3.13;;;2.38;;
12814;SDS011;6472;52.328;13.070;2022-07-29T13:27:14;4.85;;;2.20;;
12814;SDS011;6472;52.328;13.070;2022-07-29T13:29:43;3.28;;;2.28;;
12814;SDS011;6472;52.328;13.070;2022-07-29T13:32:11;3.28;;;2.22;;
12814;SDS011;6472;52.328;13.070;2022-07-29T13:34:39;2.60;;;2.13;;
12814;SDS011;6472;52.328;13.070;2022-07-29T13:37:09;2.72;;;2.20;;
12814;SDS011;6472;52.328;13.070;2022-07-29T13:39:37;3.47;;;2.17;;
12814;SDS011;6472;52.328;13.070;2022-07-29T13:42:06;2.65;;;2.45;;
12814;SDS011;6472;52.328;13.070;2022-07-29T13:44:36;2.42;;;1.92;;
12814;SDS011;6472;52.328;13.070;2022-07-29T13:47:04;2.53;;;2.15;;
12814;SDS011;6472;52.328;13.070;2022-07-29T13:49:32;4.75;;;2.17;;
12814;SDS011;6472;52.328;13.070;2022-07-29T13:52:01;2.15;;;2.00;;
12814;SDS011;6472;52.328;13.070;2022-07-29T13:54:35;5.95;;;2.28;;
12814;SDS011;6472;52.328;13.070;2022-07-29T13:57:07;4.72;;;2.50;;
12814;SDS011;6472;52.328;13.070;2022-07-29T13:59:37;3.28;;;2.20;;
12814;SDS011;6472;52.328;13.070;2022-07-29T14:02:05;2.15;;;1.95;;
12814;SDS011;6472;52.328;13.070;2022-07-29T14:04:33;2.00;;;1.90;;
12814;SDS011;6472;52.328;13.070;2022-07-29T14:07:05;3.05;;;1.80;;
12814;SDS011;6472;52.328;13.070;2022-07-29T14:09:35;2.05;;;1.90;;
12814;SDS011;6472;52.328;13.070;2022-07-29T14:12:07;3.17;;;2.30;;
12814;SDS011;6472;52.328;13.070;2022-07-29T14:14:35;3.50;;;2.35;;
12814;SDS011;6472;52.328;13.070;2022-07-29T14:17:04;2.55;;;2.08;;
12814;SDS011;6472;52.328;13.070;2022-07-29T14:19:33;2.78;;;2.05;;
12814;SDS011;6472;52.328;13.070;2022-07-29T14:22:05;4.35;;;2.03;;
12814;SDS011;6472;52.328;13.070;2022-07-29T14:24:37;2.30;;;2.10;;
12814;SDS011;6472;52.328;13.070;2022-07-29T14:30:15;3.10;;;2.08;;
12814;SDS011;6472;52.328;13.070;2022-07-29T14:32:43;3.05;;;2.22;;
12814;SDS011;6472;52.328;13.070;2022-07-29T14:35:11;2.00;;;1.90;;
12814;SDS011;6472;52.328;13.070;2022-07-29T14:37:39;4.40;;;2.30;;
12814;SDS011;6472;52.328;13.070;2022-07-29T14:40:10;3.40;;;2.10;;
12814;SDS011;6472;52.328;13.070;2022-07-29T14:42:38;2.78;;;2.05;;
12814;SDS011;6472;52.328;13.070;2022-07-29T14:45:07;1.67;;;1.58;;
12814;SDS011;6472;52.328;13.070;2022-07-29T14:47:36;2.40;;;2.10;;
12814;SDS011;6472;52.328;13.070;2022-07-29T14:50:05;2.78;;;2.40;;
12814;SDS011;6472;52.328;13.070;2022-07-29T14:52:34;2.63;;;2.42;;
12814;SDS011;6472;52.328;13.070;2022-07-29T14:55:02;5.57;;;2.70;;
12814;SDS011;6472;52.328;13.070;2022-07-29T14:57:46;2.40;;;2.20;;
12814;SDS011;6472;52.328;13.070;2022-07-29T15:00:14;2.17;;;2.00;;
12814;SDS011;6472;52.328;13.070;2022-07-29T15:02:42;2.00;;;1.90;;
12814;SDS011;6472;52.328;13.070;2022-07-29T15:05:27;5.03;;;2.13;;
12814;SDS011;6472;52.328;13.070;2022-07-29T15:07:55;4.95;;;1.83;;
12814;SDS011;6472;52.328;13.070;2022-07-29T15:10:23;4.30;;;2.33;;
12814;SDS011;6472;52.328;13.070;2022-07-29T15:12:53;3.67;;;2.10;;
12814;SDS011;6472;52.328;13.070;2022-07-29T15:15:23;3.22;;;2.10;;
12814;SDS011;6472;52.328;13.070;2022-07-29T15:17:51;2.72;;;2.10;;
12814;SDS011;6472;52.328;13.070;2022-07-29T15:20:19;2.70;;;2.08;;
12814;SDS011;6472;52.328;13.070;2022-07-29T15:22:47;1.92;;;1.83;;
12814;SDS011;6472;52.328;13.070;2022-07-29T15:25:15;4.78;;;2.20;;
12814;SDS011;6472;52.328;13.070;2022-07-29T15:27:43;2.83;;;2.20;;
12814;SDS011;6472;52.328;13.070;2022-07-29T15:30:19;3.13;;;2.55;;
12814;SDS011;6472;52.328;13.070;2022-07-29T15:32:58;2.22;;;2.03;;